Aviation Digital Data Service (ADDS)

Output produced by METARs form (0920 UTC 24 March 2019)
found at http://www.aviationweather.gov/metar/data/
 
METAR text: LERI 240900Z 06001KT CAVOK 12/07 Q1025 NOSIG
Conditions at: LERI (ALCANTARILLA(SP-, ES) observed 0900 UTC 24 March 2019
Temperature: 12.0°C (54°F)
Dewpoint: 7.0°C (45°F) [RH = 71%]
Pressure (altimeter): 30.27 inches Hg (1025.0 mb)
Winds: from the ENE (60 degrees) at 1 MPH (1 knots; 0.5 m/s)
Visibility: 6 or more miles (10+ km)
Ceiling: ceiling and visibility are OK
Clouds: unknown
Weather: no significant weather observed at this time

METAR text: LERI 240800Z VRB02KT CAVOK 11/07 Q1024 NOSIG
Conditions at: LERI (ALCANTARILLA(SP-, ES) observed 0800 UTC 24 March 2019
Temperature: 11.0°C (52°F)
Dewpoint: 7.0°C (45°F) [RH = 76%]
Pressure (altimeter): 30.24 inches Hg (1024.0 mb)
Winds: variable direction winds at 2 MPH (2 knots; 1.0 m/s)
Visibility: 6 or more miles (10+ km)
Ceiling: ceiling and visibility are OK
Clouds: unknown
Weather: no significant weather observed at this time

METAR text: LERI 240700Z VRB01KT 6000 NSC 07/06 Q1024 NOSIG
Conditions at: LERI (ALCANTARILLA(SP-, ES) observed 0700 UTC 24 March 2019
Temperature: 7.0°C (45°F)
Dewpoint: 6.0°C (43°F) [RH = 93%]
Pressure (altimeter): 30.24 inches Hg (1024.0 mb)
Winds: variable direction winds at 1 MPH (1 knots; 0.5 m/s)
Visibility: 4 miles ( 6 km)
Ceiling: at least 12,000 feet AGL
Clouds: sky clear below 12,000 feet AGL
Weather: no significant weather observed at this time

METAR text: LERI 240600Z 00000KT 4500 BR NSC 05/05 Q1024 NOSIG
Conditions at: LERI (ALCANTARILLA(SP-, ES) observed 0600 UTC 24 March 2019
Temperature: 5.0°C (41°F)
Dewpoint: 5.0°C (41°F) [RH = 100%]
Pressure (altimeter): 30.24 inches Hg (1024.0 mb)
Winds: calm
Visibility: 2.80 miles (4.51 km)
Ceiling: at least 12,000 feet AGL
Clouds: sky clear below 12,000 feet AGL
Weather: BR  (mist)

METAR text: LERI 231800Z 05005KT 9999 FEW060 16/06 Q1024 NOSIG
Conditions at: LERI (ALCANTARILLA(SP-, ES) observed 1800 UTC 23 March 2019
Temperature: 16.0°C (61°F)
Dewpoint: 6.0°C (43°F) [RH = 51%]
Pressure (altimeter): 30.24 inches Hg (1024.0 mb)
Winds: from the NE (50 degrees) at 6 MPH (5 knots; 2.6 m/s)
Visibility: 6 or more miles (10+ km)
Ceiling: at least 12,000 feet AGL
Clouds: few clouds at 6000 feet AGL
Weather: no significant weather observed at this time

METAR text: LERI 231700Z 05004KT 020V080 9999 FEW060 16/06 Q1023 NOSIG
Conditions at: LERI (ALCANTARILLA(SP-, ES) observed 1700 UTC 23 March 2019
Temperature: 16.0°C (61°F)
Dewpoint: 6.0°C (43°F) [RH = 51%]
Pressure (altimeter): 30.21 inches Hg (1023.0 mb)
Winds: from the NE (50 degrees) at 5 MPH (4 knots; 2.1 m/s)
Visibility: 6 or more miles (10+ km)
Ceiling: at least 12,000 feet AGL
Clouds: few clouds at 6000 feet AGL
Weather: no significant weather observed at this time

METAR text: LERI 231600Z 08004KT 040V110 9999 FEW055 16/05 Q1024 NOSIG
Conditions at: LERI (ALCANTARILLA(SP-, ES) observed 1600 UTC 23 March 2019
Temperature: 16.0°C (61°F)
Dewpoint: 5.0°C (41°F) [RH = 48%]
Pressure (altimeter): 30.24 inches Hg (1024.0 mb)
Winds: from the E (80 degrees) at 5 MPH (4 knots; 2.1 m/s)
Visibility: 6 or more miles (10+ km)
Ceiling: at least 12,000 feet AGL
Clouds: few clouds at 5500 feet AGL
Weather: no significant weather observed at this time

METAR text: LERI 231500Z 12001KT 9999 FEW060 17/05 Q1024 NOSIG
Conditions at: LERI (ALCANTARILLA(SP-, ES) observed 1500 UTC 23 March 2019
Temperature: 17.0°C (63°F)
Dewpoint: 5.0°C (41°F) [RH = 45%]
Pressure (altimeter): 30.24 inches Hg (1024.0 mb)
Winds: from the ESE (120 degrees) at 1 MPH (1 knots; 0.5 m/s)
Visibility: 6 or more miles (10+ km)
Ceiling: at least 12,000 feet AGL
Clouds: few clouds at 6000 feet AGL
Weather: no significant weather observed at this time

METAR text: LERI 231400Z VRB01KT 9999 FEW060 16/06 Q1025 NOSIG
Conditions at: LERI (ALCANTARILLA(SP-, ES) observed 1400 UTC 23 March 2019
Temperature: 16.0°C (61°F)
Dewpoint: 6.0°C (43°F) [RH = 51%]
Pressure (altimeter): 30.27 inches Hg (1025.0 mb)
Winds: variable direction winds at 1 MPH (1 knots; 0.5 m/s)
Visibility: 6 or more miles (10+ km)
Ceiling: at least 12,000 feet AGL
Clouds: few clouds at 6000 feet AGL
Weather: no significant weather observed at this time

METAR text: LERI 231300Z 22004KT 9999 SCT050 SCT060 14/06 Q1025 NOSIG
Conditions at: LERI (ALCANTARILLA(SP-, ES) observed 1300 UTC 23 March 2019
Temperature: 14.0°C (57°F)
Dewpoint: 6.0°C (43°F) [RH = 58%]
Pressure (altimeter): 30.27 inches Hg (1025.0 mb)
Winds: from the SW (220 degrees) at 5 MPH (4 knots; 2.1 m/s)
Visibility: 6 or more miles (10+ km)
Ceiling: at least 12,000 feet AGL
Clouds: scattered clouds at 5000 feet AGL
scattered clouds at 6000 feet AGL
Weather: no significant weather observed at this time

METAR text: LERI 231200Z 21004KT 180V240 9999 FEW045 BKN060 14/06 Q1026 NOSIG
Conditions at: LERI (ALCANTARILLA(SP-, ES) observed 1200 UTC 23 March 2019
Temperature: 14.0°C (57°F)
Dewpoint: 6.0°C (43°F) [RH = 58%]
Pressure (altimeter): 30.30 inches Hg (1026.0 mb)
Winds: from the SSW (210 degrees) at 5 MPH (4 knots; 2.1 m/s)
Visibility: 6 or more miles (10+ km)
Ceiling: 6000 feet AGL
Clouds: few clouds at 4500 feet AGL
broken clouds at 6000 feet AGL
Weather: no significant weather observed at this time

METAR text: LERI 231100Z 21003KT 170V240 9999 BKN045 13/07 Q1026 NOSIG
Conditions at: LERI (ALCANTARILLA(SP-, ES) observed 1100 UTC 23 March 2019
Temperature: 13.0°C (55°F)
Dewpoint: 7.0°C (45°F) [RH = 67%]
Pressure (altimeter): 30.30 inches Hg (1026.0 mb)
Winds: from the SSW (210 degrees) at 3 MPH (3 knots; 1.5 m/s)
Visibility: 6 or more miles (10+ km)
Ceiling: 4500 feet AGL
Clouds: broken clouds at 4500 feet AGL
Weather: no significant weather observed at this time

METAR text: LERI 231000Z VRB02KT 9999 FEW045 BKN055 13/07 Q1026 NOSIG
Conditions at: LERI (ALCANTARILLA(SP-, ES) observed 1000 UTC 23 March 2019
Temperature: 13.0°C (55°F)
Dewpoint: 7.0°C (45°F) [RH = 67%]
Pressure (altimeter): 30.30 inches Hg (1026.0 mb)
Winds: variable direction winds at 2 MPH (2 knots; 1.0 m/s)
Visibility: 6 or more miles (10+ km)
Ceiling: 5500 feet AGL
Clouds: few clouds at 4500 feet AGL
broken clouds at 5500 feet AGL
Weather: no significant weather observed at this time

METAR text: LERI 230900Z 33003KT 300V360 9999 -RA BKN060 14/04 Q1026 NOSIG
Conditions at: LERI (ALCANTARILLA(SP-, ES) observed 0900 UTC 23 March 2019
Temperature: 14.0°C (57°F)
Dewpoint: 4.0°C (39°F) [RH = 51%]
Pressure (altimeter): 30.30 inches Hg (1026.0 mb)
Winds: from the NNW (330 degrees) at 3 MPH (3 knots; 1.5 m/s)
Visibility: 6 or more miles (10+ km)
Ceiling: 6000 feet AGL
Clouds: broken clouds at 6000 feet AGL
Weather: -RA  (light rain)

METAR text: LERI 230800Z 00000KT 9999 BKN060 13/05 Q1026 NOSIG
Conditions at: LERI (ALCANTARILLA(SP-, ES) observed 0800 UTC 23 March 2019
Temperature: 13.0°C (55°F)
Dewpoint: 5.0°C (41°F) [RH = 58%]
Pressure (altimeter): 30.30 inches Hg (1026.0 mb)
Winds: calm
Visibility: 6 or more miles (10+ km)
Ceiling: 6000 feet AGL
Clouds: broken clouds at 6000 feet AGL
Weather: no significant weather observed at this time

METAR text: LERI 230700Z VRB01KT 9999 SCT060 12/05 Q1026 NOSIG
Conditions at: LERI (ALCANTARILLA(SP-, ES) observed 0700 UTC 23 March 2019
Temperature: 12.0°C (54°F)
Dewpoint: 5.0°C (41°F) [RH = 62%]
Pressure (altimeter): 30.30 inches Hg (1026.0 mb)
Winds: variable direction winds at 1 MPH (1 knots; 0.5 m/s)
Visibility: 6 or more miles (10+ km)
Ceiling: at least 12,000 feet AGL
Clouds: scattered clouds at 6000 feet AGL
Weather: no significant weather observed at this time

METAR text: LERI 230600Z VRB02KT 9999 BKN060 10/06 Q1025 NOSIG
Conditions at: LERI (ALCANTARILLA(SP-, ES) observed 0600 UTC 23 March 2019
Temperature: 10.0°C (50°F)
Dewpoint: 6.0°C (43°F) [RH = 76%]
Pressure (altimeter): 30.27 inches Hg (1025.0 mb)
Winds: variable direction winds at 2 MPH (2 knots; 1.0 m/s)
Visibility: 6 or more miles (10+ km)
Ceiling: 6000 feet AGL
Clouds: broken clouds at 6000 feet AGL
Weather: no significant weather observed at this time

Forecast for: LERI (ALCANTARILLA(SP-, ES)
Text: TAF LERI 240800Z 2409/2418 VRB02KT 9999 FEW020
Forecast period: 0900 to 1000 UTC 24 March 2019
Forecast type: FROM: standard forecast or significant change
Winds: variable direction winds at 2 MPH (2 knots; 1.0 m/s)
Visibility: 6 or more miles 10+ km)
Ceiling: at least 12,000 feet AGL
Clouds: few clouds at 2000 feet AGL
Weather: no significant weather forecast for this period
Text: BECMG 2410/2413 07010KT
Forecast period: 1000 to 1800 UTC 24 March 2019
Forecast type: BECOMING: Conditions expected to become as follows by 1300 UTC 24 March 2019
Winds: from the ENE (70 degrees) at 12 MPH (10 knots; 5.1 m/s)
Visibility: 6 or more miles 10+ km)
Ceiling: at least 12,000 feet AGL
Clouds: few clouds at 2000 feet AGL
Weather: no significant weather forecast for this period